createdAt,value
2022-08-04T00:01:52.950Z,96914.69
2022-08-04T00:04:28.330Z,96915.41
2022-08-04T00:07:02.051Z,96919.31
2022-08-04T00:09:58.645Z,96917.31
2022-08-04T00:12:32.502Z,96920.44
2022-08-04T00:15:05.416Z,96913.75
2022-08-04T00:17:40.506Z,96925.88
2022-08-04T00:20:10.499Z,96918.81
2022-08-04T00:22:41.276Z,96920.31
2022-08-04T00:25:10.981Z,96925.75
2022-08-04T00:27:39.670Z,96919.84
2022-08-04T00:30:08.932Z,96927.66
2022-08-04T00:32:37.025Z,96921.31
2022-08-04T00:35:06.129Z,96916.16
2022-08-04T00:37:34.396Z,96921.59
2022-08-04T00:40:02.696Z,96928.59
2022-08-04T00:42:58.293Z,96919.13
2022-08-04T00:46:15.060Z,96919.09
2022-08-04T00:48:53.106Z,96925.66
2022-08-04T00:51:27.525Z,96924.81
2022-08-04T00:54:03.361Z,96925.13
2022-08-04T00:56:52.051Z,96916.81
2022-08-04T00:59:32.980Z,96913.25
2022-08-04T01:02:02.661Z,96912.03
2022-08-04T01:04:47.665Z,96911.63
2022-08-04T01:07:33.231Z,96912.31
2022-08-04T01:10:07.784Z,96902.09
2022-08-04T01:12:49.734Z,96912.97
2022-08-04T01:15:27.142Z,96908.19
2022-08-04T01:18:23.060Z,96901.78
2022-08-04T01:21:01.641Z,96901.78
2022-08-04T01:23:42.949Z,96908.78
2022-08-04T01:26:43.490Z,96910.34
2022-08-04T01:29:14.953Z,96908.34
2022-08-04T01:32:02.048Z,96907.19
2022-08-04T01:34:32.635Z,96909.50
2022-08-04T01:37:03.833Z,96916.09
2022-08-04T01:39:43.535Z,96907.06
2022-08-04T01:42:12.747Z,96907.81
2022-08-04T01:45:02.011Z,96912.41
2022-08-04T01:47:31.918Z,96914.72
2022-08-04T01:50:07.855Z,96906.84
2022-08-04T01:52:36.892Z,96910.28
2022-08-04T01:55:06.977Z,96907.56
2022-08-04T01:57:37.854Z,96913.03
2022-08-04T02:00:10.595Z,96911.03
2022-08-04T02:03:04.851Z,96911.38
2022-08-04T02:06:03.096Z,96912.88
2022-08-04T02:08:23.574Z,96909.00
2022-08-04T02:11:04.571Z,96913.28
2022-08-04T02:13:36.282Z,96914.78
2022-08-04T02:16:08.871Z,96914.34
2022-08-04T02:18:47.983Z,96908.88
2022-08-04T02:21:18.038Z,96915.09
2022-08-04T02:23:49.031Z,96914.22
2022-08-04T02:26:22.241Z,96904.81
2022-08-04T02:28:56.316Z,96911.72
2022-08-04T02:31:30.046Z,96905.03
2022-08-04T02:34:05.398Z,96906.56
2022-08-04T02:36:38.422Z,96906.47
2022-08-04T02:39:08.209Z,96909.59
2022-08-04T02:41:36.837Z,96913.81
2022-08-04T02:44:06.407Z,96905.19
2022-08-04T02:46:37.794Z,96902.41
2022-08-04T02:49:07.317Z,96902.31
2022-08-04T02:51:37.017Z,96908.44
2022-08-04T02:54:06.683Z,96909.06
2022-08-04T02:56:37.491Z,96898.00
2022-08-04T02:59:09.523Z,96895.22
2022-08-04T03:01:58.015Z,96900.16
2022-08-04T03:04:44.782Z,96896.22
2022-08-04T03:07:30.753Z,96894.13
2022-08-04T03:10:21.366Z,96893.97
2022-08-04T03:13:24.485Z,96894.72
2022-08-04T03:16:07.657Z,96888.38
2022-08-04T03:22:03.072Z,96895.00
2022-08-04T03:25:15.466Z,96901.50
2022-08-04T03:28:13.438Z,96899.84
2022-08-04T03:30:51.783Z,96902.84
2022-08-04T03:33:40.966Z,96905.41
2022-08-04T03:36:42.972Z,96907.28
2022-08-04T03:39:41.918Z,96906.38
2022-08-04T03:42:35.134Z,96910.94
2022-08-04T03:45:24.018Z,96905.44
2022-08-04T03:48:18.060Z,96904.63
2022-08-04T03:51:36.115Z,96906.56
2022-08-04T03:54:36.199Z,96899.88
2022-08-04T03:57:25.306Z,96905.31
2022-08-04T04:00:08.745Z,96901.41
2022-08-04T04:03:28.357Z,96899.47
2022-08-04T04:06:36.362Z,96895.16
2022-08-04T04:09:58.149Z,96893.13
2022-08-04T04:12:57.069Z,96893.50
2022-08-04T04:15:39.119Z,96897.38
2022-08-04T04:18:21.125Z,96900.44
2022-08-04T04:21:00.216Z,96908.94
2022-08-04T04:23:51.704Z,96909.31
2022-08-04T04:26:38.751Z,96918.47
2022-08-04T04:29:41.568Z,96915.75
2022-08-04T04:32:23.050Z,96914.16
2022-08-04T04:35:19.960Z,96915.75
2022-08-04T04:37:58.730Z,96919.94
2022-08-04T04:40:47.843Z,96916.44
2022-08-04T04:43:51.579Z,96919.53
2022-08-04T04:46:31.855Z,96924.97
2022-08-04T04:49:04.579Z,96921.78
2022-08-04T04:51:37.528Z,96922.59
2022-08-04T04:54:09.657Z,96926.91
2022-08-04T04:56:41.562Z,96931.22
2022-08-04T04:59:12.791Z,96926.56
2022-08-04T05:01:58.750Z,96930.50
2022-08-04T05:04:39.314Z,96933.66
2022-08-04T05:07:37.299Z,96936.38
2022-08-04T05:10:11.924Z,96933.75
2022-08-04T05:14:37.277Z,96945.44
2022-08-04T05:15:45.420Z,96942.44
2022-08-04T05:18:17.979Z,96945.59
2022-08-04T05:20:49.164Z,96944.88
2022-08-04T05:23:19.829Z,96949.66
2022-08-04T05:25:58.674Z,96945.78
2022-08-04T05:28:30.374Z,96935.75
2022-08-04T05:31:01.864Z,96931.16
2022-08-04T05:33:34.299Z,96934.38
2022-08-04T05:36:19.036Z,96936.81
2022-08-04T05:38:54.361Z,96935.31
2022-08-04T05:41:23.596Z,96934.25
2022-08-04T05:44:01.619Z,96936.25
2022-08-04T05:46:31.998Z,96935.63
2022-08-04T05:49:00.277Z,96941.19
2022-08-04T05:51:30.933Z,96940.91
2022-08-04T05:53:59.416Z,96934.38
2022-08-04T05:56:27.882Z,96937.97
2022-08-04T05:58:56.571Z,96942.38
2022-08-04T06:01:25.701Z,96938.50
2022-08-04T06:03:58.739Z,96936.78
2022-08-04T06:06:27.955Z,96938.88
2022-08-04T06:08:57.303Z,96936.66
2022-08-04T06:11:28.003Z,96939.88
2022-08-04T06:13:58.835Z,96942.38
2022-08-04T06:16:32.142Z,96947.22
2022-08-04T06:20:00.894Z,96941.13
2022-08-04T06:21:55.733Z,96938.53
2022-08-04T06:24:27.597Z,96945.28
2022-08-04T06:26:56.403Z,96939.50
2022-08-04T06:29:28.373Z,96948.56
2022-08-04T06:32:29.771Z,96937.78
2022-08-04T06:34:49.311Z,96940.19
2022-08-04T06:37:41.029Z,96937.59
2022-08-04T06:40:30.822Z,96944.78
2022-08-04T06:42:55.102Z,96939.00
2022-08-04T06:45:23.373Z,96938.69
2022-08-04T06:47:51.609Z,96936.81
2022-08-04T06:51:24.985Z,96926.88
2022-08-04T06:53:09.385Z,96934.00
2022-08-04T06:55:38.641Z,96928.28
2022-08-04T06:58:07.775Z,96929.53
2022-08-04T07:00:37.466Z,96932.06
2022-08-04T07:03:05.782Z,96928.28
2022-08-04T07:05:35.986Z,96933.00
2022-08-04T07:08:05.771Z,96930.81
2022-08-04T07:10:33.981Z,96930.97
2022-08-04T07:13:02.487Z,96930.31
2022-08-04T07:15:31.093Z,96929.59
2022-08-04T07:18:01.330Z,96932.06
2022-08-04T07:20:34.845Z,96925.97
2022-08-04T07:23:05.756Z,96930.78
2022-08-04T07:26:00.425Z,96929.28
2022-08-04T07:28:24.812Z,96932.50
2022-08-04T07:30:54.217Z,96934.19
2022-08-04T07:33:22.982Z,96933.09
2022-08-04T07:36:05.027Z,96938.28
2022-08-04T07:38:46.515Z,96932.84
2022-08-04T07:41:37.754Z,96932.91
2022-08-04T07:44:06.754Z,96937.31
2022-08-04T07:46:35.033Z,96929.97
2022-08-04T07:49:03.086Z,96926.91
2022-08-04T07:51:32.464Z,96922.34
2022-08-04T07:54:03.448Z,96922.38
2022-08-04T07:56:32.376Z,96920.13
2022-08-04T07:59:01.132Z,96921.00
2022-08-04T08:01:29.682Z,96914.78
2022-08-04T08:03:59.274Z,96926.25
2022-08-04T08:06:32.243Z,96930.59
2022-08-04T08:09:13.554Z,96926.34
2022-08-04T08:12:35.576Z,96924.81
2022-08-04T08:14:31.994Z,96928.44
2022-08-04T08:17:01.580Z,96924.91
2022-08-04T08:19:29.881Z,96924.97
2022-08-04T08:21:59.147Z,96932.06
2022-08-04T08:24:30.259Z,96932.56
2022-08-04T08:26:58.654Z,96932.63
2022-08-04T08:29:27.698Z,96921.66
2022-08-04T08:32:01.388Z,96930.31
2022-08-04T08:34:32.455Z,96924.81
2022-08-04T08:37:04.780Z,96926.03
2022-08-04T08:39:37.717Z,96924.09
2022-08-04T08:42:32.367Z,96931.16
2022-08-04T08:45:32.823Z,96929.59
2022-08-04T08:48:12.851Z,96934.38
2022-08-04T08:51:11.445Z,96932.03
2022-08-04T08:53:56.003Z,96926.94
2022-08-04T08:56:34.829Z,96928.50
2022-08-04T08:59:17.278Z,96933.63
2022-08-04T09:02:04.667Z,96938.34
2022-08-04T09:04:49.564Z,96928.50
2022-08-04T09:07:50.977Z,96934.41
2022-08-04T09:10:22.084Z,96931.28
2022-08-04T09:12:55.301Z,96929.69
2022-08-04T09:15:29.740Z,96935.97
2022-08-04T09:18:02.041Z,96926.50
2022-08-04T09:20:32.814Z,96925.34
2022-08-04T09:23:08.107Z,96936.72
2022-08-04T09:25:40.840Z,96927.25
2022-08-04T09:28:43.611Z,96921.75
2022-08-04T09:31:12.924Z,96922.50
2022-08-04T09:33:46.222Z,96926.38
2022-08-04T09:36:26.107Z,96927.91
2022-08-04T09:39:05.312Z,96921.97
2022-08-04T09:41:49.201Z,96920.34
2022-08-04T09:44:49.972Z,96920.69
2022-08-04T09:47:20.550Z,96911.50
2022-08-04T09:49:52.475Z,96918.94
2022-08-04T09:52:28.310Z,96912.97
2022-08-04T09:55:05.935Z,96903.50
2022-08-04T09:57:46.479Z,96909.34
2022-08-04T10:00:17.165Z,96897.03
2022-08-04T10:03:13.667Z,96900.50
2022-08-04T10:05:55.059Z,96892.16
2022-08-04T10:08:35.150Z,96896.41
2022-08-04T10:11:08.748Z,96895.59
2022-08-04T10:13:47.298Z,96893.50
2022-08-04T10:16:39.449Z,96886.69
2022-08-04T10:19:16.918Z,96891.34
2022-08-04T10:21:59.896Z,96888.78
2022-08-04T10:24:55.077Z,96891.13
2022-08-04T10:27:27.178Z,96885.63
2022-08-04T10:29:59.308Z,96892.63
2022-08-04T10:32:32.804Z,96892.41
2022-08-04T10:35:12.060Z,96892.00
2022-08-04T10:38:01.016Z,96887.56
2022-08-04T10:40:47.761Z,96895.72
2022-08-04T10:43:25.315Z,96889.69
2022-08-04T10:45:59.427Z,96886.06
2022-08-04T10:48:37.553Z,96878.56
2022-08-04T10:51:16.494Z,96879.13
2022-08-04T10:53:45.042Z,96880.13
2022-08-04T10:56:17.277Z,96877.44
2022-08-04T10:58:49.081Z,96869.13
2022-08-04T11:02:00.035Z,96877.25
2022-08-04T11:04:16.058Z,96866.72
2022-08-04T11:06:56.684Z,96875.25
2022-08-04T11:09:24.980Z,96859.56
2022-08-04T11:12:00.294Z,96856.59
2022-08-04T11:14:34.761Z,96861.53
2022-08-04T11:17:07.599Z,96862.94
2022-08-04T11:19:45.392Z,96862.00
2022-08-04T11:22:19.180Z,96862.19
2022-08-04T11:24:52.889Z,96864.97
2022-08-04T11:27:30.865Z,96860.50
2022-08-04T11:30:03.809Z,96863.28
2022-08-04T11:32:37.647Z,96857.72
2022-08-04T11:35:11.232Z,96857.13
2022-08-04T11:37:44.445Z,96857.50
2022-08-04T11:40:15.127Z,96853.56
2022-08-04T11:42:53.334Z,96858.13
2022-08-04T11:45:26.347Z,96848.19
2022-08-04T11:48:00.685Z,96844.72
2022-08-04T11:50:34.673Z,96847.16
2022-08-04T11:53:03.727Z,96849.44
2022-08-04T11:56:07.510Z,96858.31
2022-08-04T11:58:22.251Z,96850.50
2022-08-04T12:00:58.294Z,96845.66
2022-08-04T12:03:37.590Z,96844.81
2022-08-04T12:06:19.512Z,96842.97
2022-08-04T12:09:01.720Z,96843.88
2022-08-04T12:11:47.976Z,96848.75
2022-08-04T12:14:38.831Z,96845.59
2022-08-04T12:17:08.616Z,96844.94
2022-08-04T12:20:03.167Z,96838.50
2022-08-04T12:22:33.905Z,96843.56
2022-08-04T12:25:07.569Z,96834.88
2022-08-04T12:27:38.692Z,96826.72
2022-08-04T12:30:58.982Z,96826.03
2022-08-04T12:33:01.469Z,96823.59
2022-08-04T12:35:32.491Z,96828.44
2022-08-04T12:38:06.343Z,96820.16
2022-08-04T12:40:39.521Z,96820.94
2022-08-04T12:43:14.526Z,96827.00
2022-08-04T12:45:48.605Z,96819.78
2022-08-04T12:48:21.076Z,96807.72
2022-08-04T12:50:50.110Z,96813.59
2022-08-04T12:53:31.420Z,96812.47
2022-08-04T12:56:02.396Z,96809.81
2022-08-04T12:58:43.330Z,96809.44
2022-08-04T13:02:06.974Z,96806.53
2022-08-04T13:04:05.081Z,96807.66
2022-08-04T13:06:35.713Z,96798.69
2022-08-04T13:09:09.600Z,96802.72
2022-08-04T13:11:50.718Z,96798.22
2022-08-04T13:14:27.059Z,96791.88
2022-08-04T13:16:59.373Z,96795.78
2022-08-04T13:19:28.855Z,96799.34
2022-08-04T13:22:02.932Z,96797.13
2022-08-04T13:24:56.311Z,96797.44
2022-08-04T13:27:55.418Z,96793.34
2022-08-04T13:30:26.713Z,96788.22
2022-08-04T13:32:57.043Z,96785.97
2022-08-04T13:35:54.404Z,96789.38
2022-08-04T13:38:15.960Z,96784.94
2022-08-04T13:40:45.977Z,96779.91
2022-08-04T13:44:16.423Z,96781.28
2022-08-04T13:46:28.075Z,96773.09
2022-08-04T13:49:25.878Z,96766.09
2022-08-04T13:51:57.467Z,96764.63
2022-08-04T13:54:27.227Z,96760.44
2022-08-04T13:57:01.832Z,96762.63
2022-08-04T13:59:35.700Z,96765.25
2022-08-04T14:02:08.929Z,96758.91
2022-08-04T14:04:43.340Z,96756.81
2022-08-04T14:07:18.085Z,96759.41
2022-08-04T14:10:03.174Z,96755.69
2022-08-04T14:12:38.466Z,96752.50
2022-08-04T14:16:02.541Z,96743.63
2022-08-04T14:18:28.850Z,96741.03
2022-08-04T14:21:05.710Z,96745.28
2022-08-04T14:23:47.036Z,96739.34
2022-08-04T14:26:20.472Z,96738.09
2022-08-04T14:29:27.760Z,96735.66
2022-08-04T14:32:06.196Z,96734.50
2022-08-04T14:34:41.548Z,96732.69
2022-08-04T14:37:17.211Z,96743.13
2022-08-04T14:40:19.401Z,96736.47
2022-08-04T14:42:44.666Z,96727.16
2022-08-04T14:45:34.150Z,96717.06
2022-08-04T14:48:03.921Z,96724.81
2022-08-04T14:50:41.103Z,96730.25
2022-08-04T14:53:10.355Z,96730.88
2022-08-04T14:55:40.230Z,96726.19
2022-08-04T14:58:34.041Z,96727.91
2022-08-04T15:01:01.085Z,96728.38
2022-08-04T15:03:50.597Z,96714.38
2022-08-04T15:06:23.025Z,96722.03
2022-08-04T15:08:52.035Z,96719.91
2022-08-04T15:11:23.530Z,96723.31
2022-08-04T15:13:52.521Z,96719.28
2022-08-04T15:16:22.897Z,96714.88
2022-08-04T15:18:54.456Z,96719.28
2022-08-04T15:21:23.858Z,96718.53
2022-08-04T15:23:51.968Z,96720.31
2022-08-04T15:26:26.469Z,96719.34
2022-08-04T15:28:57.323Z,96721.22
2022-08-04T15:32:07.570Z,96714.72
2022-08-04T15:34:15.738Z,96709.94
2022-08-04T15:36:57.203Z,96706.25
2022-08-04T15:39:33.126Z,96712.88
2022-08-04T15:42:16.185Z,96706.91
2022-08-04T15:45:20.245Z,96705.47
2022-08-04T15:48:29.019Z,96714.28
2022-08-04T15:51:17.427Z,96704.72
2022-08-04T15:54:27.312Z,96703.28
2022-08-04T15:57:02.347Z,96702.50
2022-08-04T16:00:09.922Z,96695.91
2022-08-04T16:02:44.339Z,96695.34
2022-08-04T16:05:39.483Z,96694.00
2022-08-04T16:08:12.903Z,96695.19
2022-08-04T16:10:42.284Z,96696.88
2022-08-04T16:13:13.834Z,96688.13
2022-08-04T16:15:44.204Z,96692.78
2022-08-04T16:18:26.566Z,96686.25
2022-08-04T16:20:58.533Z,96684.91
2022-08-04T16:23:55.039Z,96678.31
2022-08-04T16:26:46.155Z,96670.28
2022-08-04T16:29:34.199Z,96675.00
2022-08-04T16:32:22.470Z,96677.19
2022-08-04T16:34:56.372Z,96676.25
2022-08-04T16:37:31.716Z,96669.03
2022-08-04T16:40:28.546Z,96671.06
2022-08-04T16:43:07.126Z,96675.63
2022-08-04T16:45:47.054Z,96676.81
2022-08-04T16:48:15.670Z,96678.22
2022-08-04T16:50:49.457Z,96668.00
2022-08-04T16:53:52.374Z,96672.06
2022-08-04T16:56:08.515Z,96664.47
2022-08-04T16:58:37.173Z,96669.44
2022-08-04T17:01:21.854Z,96661.88
2022-08-04T17:04:05.109Z,96659.56
2022-08-04T17:06:35.528Z,96658.19
2022-08-04T17:09:07.479Z,96662.53
2022-08-04T17:11:35.698Z,96658.19
2022-08-04T17:14:05.903Z,96645.78
2022-08-04T17:16:36.198Z,96648.56
2022-08-04T17:19:06.239Z,96648.59
2022-08-04T17:21:36.335Z,96651.03
2022-08-04T17:24:12.639Z,96648.50
2022-08-04T17:26:51.907Z,96639.19
2022-08-04T17:29:44.163Z,96642.59
2022-08-04T17:32:17.418Z,96642.28
2022-08-04T17:34:49.044Z,96642.06
2022-08-04T17:37:39.950Z,96643.91
2022-08-04T17:40:22.885Z,96636.56
2022-08-04T17:43:03.302Z,96637.13
2022-08-04T17:46:15.771Z,96640.75
2022-08-04T17:49:09.147Z,96633.81
2022-08-04T17:52:06.977Z,96633.09
2022-08-04T17:54:37.206Z,96632.66
2022-08-04T17:57:19.869Z,96633.34
2022-08-04T18:02:37.675Z,96627.59
2022-08-04T18:05:11.638Z,96633.94
2022-08-04T18:08:38.746Z,96635.59
2022-08-04T18:10:51.790Z,96629.38
2022-08-04T18:13:28.835Z,96633.66
2022-08-04T18:16:03.881Z,96633.88
2022-08-04T18:18:32.967Z,96628.59
2022-08-04T18:21:02.777Z,96626.06
2022-08-04T18:23:33.289Z,96629.03
2022-08-04T18:26:03.791Z,96634.50
2022-08-04T18:28:34.015Z,96641.56
2022-08-04T18:31:02.736Z,96641.13
2022-08-04T18:33:39.442Z,96638.91
2022-08-04T18:36:32.665Z,96637.59
2022-08-04T18:38:59.033Z,96636.25
2022-08-04T18:41:28.221Z,96647.56
2022-08-04T18:43:57.921Z,96651.81
2022-08-04T18:46:28.612Z,96644.47
2022-08-04T18:48:58.281Z,96648.34
2022-08-04T18:51:31.059Z,96651.00
2022-08-04T18:53:59.734Z,96650.44
2022-08-04T18:56:29.518Z,96654.63
2022-08-04T18:59:01.653Z,96657.25
2022-08-04T19:02:12.817Z,96662.25
2022-08-04T19:04:32.344Z,96653.00
2022-08-04T19:07:24.523Z,96658.44
2022-08-04T19:09:52.535Z,96663.81
2022-08-04T19:12:27.373Z,96662.09
2022-08-04T19:15:06.055Z,96664.72
2022-08-04T19:17:52.468Z,96665.78
2022-08-04T19:24:27.076Z,96680.88
2022-08-04T19:26:04.752Z,96675.19
2022-08-04T19:28:37.237Z,96682.13
2022-08-04T19:31:08.415Z,96691.78
2022-08-04T19:33:58.191Z,96697.50
2022-08-04T19:36:28.687Z,96695.44
2022-08-04T19:38:58.126Z,96693.66
2022-08-04T19:41:27.135Z,96695.06
2022-08-04T19:43:55.573Z,96700.75
2022-08-04T19:46:28.433Z,96698.53
2022-08-04T19:48:59.147Z,96702.31
2022-08-04T19:51:28.109Z,96705.66
2022-08-04T19:54:04.196Z,96711.78
2022-08-04T20:19:13.824Z,96722.03
2022-08-04T20:21:55.024Z,96717.00
2022-08-04T20:24:38.799Z,96721.03
2022-08-04T20:27:14.578Z,96723.88
2022-08-04T20:29:48.278Z,96725.53
2022-08-04T20:32:21.863Z,96722.09
2022-08-04T20:34:52.061Z,96724.91
2022-08-04T20:37:20.711Z,96723.47
2022-08-04T20:39:54.625Z,96720.41
2022-08-04T20:42:27.031Z,96726.41
2022-08-04T20:44:56.380Z,96722.09
2022-08-04T20:47:26.904Z,96721.38
2022-08-04T20:50:04.688Z,96725.38
2022-08-04T20:52:33.359Z,96719.16
2022-08-04T20:55:03.326Z,96716.50
2022-08-04T20:57:48.411Z,96716.56
2022-08-04T21:00:29.895Z,96712.31
2022-08-04T21:03:00.087Z,96716.78
2022-08-04T21:05:28.498Z,96723.59
2022-08-04T21:07:57.372Z,96716.63
2022-08-04T21:10:26.240Z,96718.28
2022-08-04T21:12:55.118Z,96723.44
2022-08-04T21:15:25.508Z,96725.44
2022-08-04T21:17:59.523Z,96719.22
2022-08-04T21:20:36.135Z,96727.16
2022-08-04T21:23:07.655Z,96719.72
2022-08-04T21:25:42.710Z,96718.66
2022-08-04T21:28:11.197Z,96715.19
2022-08-04T21:30:54.245Z,96718.78
2022-08-04T21:33:49.977Z,96714.91
2022-08-04T21:36:16.105Z,96712.59
2022-08-04T21:38:51.213Z,96715.38
2022-08-04T21:41:24.888Z,96719.72
2022-08-04T21:43:56.646Z,96718.25
2022-08-04T21:46:27.510Z,96715.94
2022-08-04T21:48:58.776Z,96712.06
2022-08-04T21:52:00.189Z,96718.84
2022-08-04T21:54:19.097Z,96719.28
2022-08-04T21:56:50.875Z,96720.91
2022-08-04T21:59:23.766Z,96722.94
2022-08-04T22:02:00.096Z,96711.94
2022-08-04T22:04:29.011Z,96710.00
2022-08-04T22:06:58.452Z,96710.03
2022-08-04T22:09:41.458Z,96711.66
2022-08-04T22:12:12.074Z,96704.56
2022-08-04T22:14:40.667Z,96708.94
2022-08-04T22:17:13.712Z,96709.78
2022-08-04T22:19:55.817Z,96713.72
2022-08-04T22:22:29.533Z,96707.91
2022-08-04T22:25:01.680Z,96716.97
2022-08-04T22:27:55.147Z,96700.88
2022-08-04T22:30:23.842Z,96709.13
2022-08-04T22:32:52.467Z,96709.16
2022-08-04T22:35:33.358Z,96711.13
2022-08-04T22:38:21.333Z,96698.97
2022-08-04T22:41:01.107Z,96703.31
2022-08-04T22:43:33.206Z,96700.97
2022-08-04T22:46:03.795Z,96696.69
2022-08-04T22:48:32.667Z,96700.25
2022-08-04T22:51:01.075Z,96697.91
2022-08-04T22:53:32.677Z,96700.28
2022-08-04T22:56:09.632Z,96700.28
2022-08-04T22:58:40.801Z,96706.56
2022-08-04T23:01:14.942Z,96699.53
2022-08-04T23:03:55.261Z,96703.44
2022-08-04T23:06:25.435Z,96699.53
2022-08-04T23:08:55.336Z,96710.53
2022-08-04T23:11:23.588Z,96705.41
2022-08-04T23:13:51.757Z,96707.78
2022-08-04T23:16:21.192Z,96695.63
2022-08-04T23:18:52.785Z,96697.19
2022-08-04T23:21:24.281Z,96698.75
2022-08-04T23:24:00.607Z,96690.53
2022-08-04T23:26:32.267Z,96698.38
2022-08-04T23:29:03.969Z,96696.44
2022-08-04T23:31:40.804Z,96700.34
2022-08-04T23:34:12.050Z,96689.34
2022-08-04T23:36:42.427Z,96697.97
2022-08-04T23:39:10.749Z,96693.28
2022-08-04T23:41:53.403Z,96692.88
2022-08-04T23:44:24.966Z,96691.31
2022-08-04T23:46:59.339Z,96685.44
2022-08-04T23:49:44.351Z,96678.38
2022-08-04T23:52:23.339Z,96686.22
2022-08-04T23:54:58.760Z,96682.28
2022-08-04T23:58:02.309Z,96687.34
